Main page
METAR-TAF:

METAR-TAF

Airports :

Lokpriya Gopinath Bordoloi International Airport

Guwahati, India

latitude: 26-06-22N, longitude: 091-35-09E, elevation: 49 m

Current weather observation

The report was made 29 minutes ago, at 20:30 UTC
Calm wind
Temperature 18°C
Humidity 94%
Pressure 1011 hPa
Visibility: 3000 m
Few clouds at a height of 2000 ft
mist

METAR: VEGT 012030Z 00000KT 3000 BR FEW020 18/17 Q1011 NOSIG

Time: 02:29 (20:59 UTC)

Forecast

The report was made 59 minutes ago, at 20:00 UTC
Forecast valid from 01 at 21 UTC to 02 at 06 UTC
Wind kt from the North
Visibility: 3000 m
Few clouds at a height of 2000 ft
Scattered clouds at a height of 10000 ft
mist
Becoming
from 01 at 23 UTC to 02 at 01 UTC
Visibility: 1500 m
mist
Becoming
from 02 at 04 UTC to 02 at 06 UTC
Wind 5 kt from the North/Northeast
Visibility: 3000 m
mist, haze

TAF: VEGT 012000Z 0121/0206 00000KT 3000 BR FEW020 SCT100 BECMG 0123/0201 1500 BR BECMG 0204/0206 02005KT 3000 BR HZ

Weather observations and forecasts of more than 4000 airports (METAR and TAF reports).

The available stations are represented by yellow and red dots on the map.

Hover mouse over dot to see the name of the station.

Then click to see weather observations and forecasts.

To change the map : click on the green buttons with a black cross to zoom in, on the green button with a dash to zoom out, or on the green arrows for adjacent maps.


METAR-TAF: